createdAt,value
2023-04-02T00:01:18.783Z,2.30
2023-04-02T00:04:23.123Z,3.20
2023-04-02T00:07:31.142Z,2.53
2023-04-02T00:10:31.288Z,2.50
2023-04-02T00:13:25.586Z,2.33
2023-04-02T00:16:17.790Z,2.33
2023-04-02T00:19:09.621Z,2.47
2023-04-02T00:21:59.844Z,2.57
2023-04-02T00:24:52.876Z,2.57
2023-04-02T00:27:41.419Z,2.40
2023-04-02T00:30:29.547Z,2.57
2023-04-02T00:33:20.314Z,2.90
2023-04-02T00:36:09.815Z,2.27
2023-04-02T00:39:02.779Z,2.77
2023-04-02T00:41:58.607Z,2.60
2023-04-02T00:44:47.512Z,2.57
2023-04-02T00:47:37.603Z,2.40
2023-04-02T00:50:33.189Z,2.53
2023-04-02T00:53:25.418Z,2.60
2023-04-02T00:56:19.216Z,2.37
2023-04-02T00:59:20.343Z,2.37
2023-04-02T01:02:26.296Z,2.33
2023-04-02T01:05:24.227Z,2.40
2023-04-02T01:08:24.085Z,2.03
2023-04-02T01:11:35.687Z,2.07
2023-04-02T01:14:38.417Z,2.17
2023-04-02T01:17:39.166Z,2.63
2023-04-02T01:21:01.826Z,2.10
2023-04-02T01:24:05.150Z,2.10
2023-04-02T01:26:58.012Z,2.27
2023-04-02T01:29:49.953Z,2.60
2023-04-02T01:32:38.771Z,2.03
2023-04-02T01:35:32.889Z,1.90
2023-04-02T01:38:28.280Z,2.43
2023-04-02T01:41:24.052Z,1.93
2023-04-02T01:44:15.103Z,2.20
2023-04-02T01:47:11.225Z,2.23
2023-04-02T01:50:03.585Z,2.10
2023-04-02T01:52:53.554Z,2.10
2023-04-02T01:55:44.658Z,2.00
2023-04-02T01:58:34.258Z,2.10
2023-04-02T02:01:26.494Z,2.30
2023-04-02T02:04:17.594Z,2.10
2023-04-02T02:07:10.339Z,2.07
2023-04-02T02:09:58.582Z,1.87
2023-04-02T02:12:48.017Z,1.90
2023-04-02T02:15:37.268Z,2.20
2023-04-02T02:18:27.531Z,1.93
2023-04-02T02:21:28.643Z,2.00
2023-04-02T02:24:21.601Z,2.07
2023-04-02T02:27:41.640Z,1.77
2023-04-02T02:30:33.646Z,1.80
2023-04-02T02:33:25.400Z,2.23
2023-04-02T02:36:22.843Z,2.37
2023-04-02T02:39:16.873Z,1.80
2023-04-02T02:42:11.965Z,1.80
2023-04-02T02:45:02.927Z,2.03
2023-04-02T02:47:52.902Z,1.70
2023-04-02T02:50:42.121Z,2.23
2023-04-02T02:53:31.543Z,2.20
2023-04-02T02:56:22.775Z,1.83
2023-04-02T02:59:12.238Z,1.80
2023-04-02T03:02:01.105Z,1.83
2023-04-02T03:04:50.690Z,1.70
2023-04-02T03:07:39.484Z,1.87
2023-04-02T03:10:38.025Z,1.97
2023-04-02T03:13:32.696Z,1.93
2023-04-02T03:16:28.101Z,1.80
2023-04-02T03:19:28.344Z,1.93
2023-04-02T03:22:21.800Z,1.87
2023-04-02T03:25:22.748Z,1.80
2023-04-02T03:28:16.884Z,1.50
2023-04-02T03:31:09.526Z,2.03
2023-04-02T03:34:00.178Z,2.10
2023-04-02T03:36:53.331Z,1.87
2023-04-02T03:39:45.613Z,1.90
2023-04-02T03:42:42.125Z,2.03
2023-04-02T03:45:37.357Z,2.20
2023-04-02T03:48:34.328Z,1.80
2023-04-02T03:51:27.463Z,2.13
2023-04-02T03:54:17.482Z,1.80
2023-04-02T03:57:08.324Z,2.07
2023-04-02T04:00:01.476Z,1.60
2023-04-02T04:02:53.177Z,1.73
2023-04-02T04:05:49.201Z,1.67
2023-04-02T04:08:44.729Z,1.70
2023-04-02T04:11:36.559Z,1.43
2023-04-02T04:14:31.823Z,2.20
2023-04-02T04:17:30.143Z,1.63
2023-04-02T04:20:22.995Z,1.90
2023-04-02T04:23:17.721Z,1.93
2023-04-02T04:26:19.854Z,1.77
2023-04-02T04:29:19.336Z,1.60
2023-04-02T04:32:18.140Z,1.87
2023-04-02T04:35:09.282Z,1.70
2023-04-02T04:38:03.857Z,2.00
2023-04-02T04:40:55.546Z,1.77
2023-04-02T04:43:48.829Z,2.07
2023-04-02T04:46:41.153Z,1.60
2023-04-02T04:49:33.544Z,1.70
2023-04-02T04:52:24.795Z,1.90
2023-04-02T04:55:30.230Z,1.90
2023-04-02T04:58:23.981Z,1.80
2023-04-02T05:01:17.464Z,1.80
2023-04-02T05:04:12.938Z,1.60
2023-04-02T05:07:06.108Z,2.33
2023-04-02T05:09:57.783Z,2.00
2023-04-02T05:12:52.218Z,1.80
2023-04-02T05:15:44.862Z,1.57
2023-04-02T05:18:37.361Z,2.10
2023-04-02T05:21:33.236Z,2.20
2023-04-02T05:24:38.527Z,2.00
2023-04-02T05:27:34.555Z,1.93
2023-04-02T05:30:46.960Z,2.30
2023-04-02T05:33:37.318Z,2.53
2023-04-02T05:36:27.854Z,2.20
2023-04-02T05:39:22.374Z,2.03
2023-04-02T05:42:20.257Z,2.00
2023-04-02T05:45:20.740Z,2.00
2023-04-02T05:48:18.092Z,1.80
2023-04-02T05:51:12.550Z,1.80
2023-04-02T05:54:04.101Z,1.50
2023-04-02T05:56:58.599Z,1.87
2023-04-02T05:59:50.657Z,1.40
2023-04-02T06:02:43.524Z,1.80
2023-04-02T06:05:40.133Z,1.50
2023-04-02T06:08:35.391Z,1.40
2023-04-02T06:11:27.931Z,1.60
2023-04-02T06:14:17.688Z,1.37
2023-04-02T06:17:05.761Z,1.60
2023-04-02T06:19:55.428Z,1.40
2023-04-02T06:22:46.707Z,1.20
2023-04-02T06:25:38.612Z,1.40
2023-04-02T06:28:32.084Z,1.47
2023-04-02T06:31:29.146Z,1.00
2023-04-02T06:34:19.287Z,1.67
2023-04-02T06:37:17.328Z,1.40
2023-04-02T06:40:22.688Z,1.30
2023-04-02T06:43:17.458Z,1.33
2023-04-02T06:46:10.497Z,1.20
2023-04-02T06:49:05.907Z,1.47
2023-04-02T06:51:56.255Z,1.50
2023-04-02T06:54:44.415Z,1.37
2023-04-02T06:57:35.733Z,1.30
2023-04-02T07:00:29.109Z,1.70
2023-04-02T07:03:22.441Z,1.10
2023-04-02T07:06:15.594Z,1.30
2023-04-02T07:09:04.054Z,1.70
2023-04-02T07:11:52.442Z,1.20
2023-04-02T07:14:41.803Z,1.33
2023-04-02T07:17:30.342Z,1.10
2023-04-02T07:20:28.001Z,1.10
2023-04-02T07:23:17.029Z,1.20
2023-04-02T07:26:06.634Z,1.00
2023-04-02T07:28:55.669Z,1.07
2023-04-02T07:31:45.180Z,1.10
2023-04-02T07:34:33.228Z,1.10
2023-04-02T07:37:21.193Z,1.73
2023-04-02T07:40:17.843Z,1.20
2023-04-02T07:43:06.888Z,1.10
2023-04-02T07:45:54.883Z,1.40
2023-04-02T07:48:44.508Z,1.00
2023-04-02T07:51:32.887Z,1.40
2023-04-02T07:54:20.910Z,1.03
2023-04-02T07:57:08.933Z,0.93
2023-04-02T07:59:57.129Z,1.10
2023-04-02T08:02:45.838Z,1.30
2023-04-02T08:05:35.324Z,1.13
2023-04-02T08:08:24.598Z,1.00
2023-04-02T08:11:12.646Z,1.00
2023-04-02T08:14:00.680Z,1.37
2023-04-02T08:16:50.681Z,1.27
2023-04-02T08:19:51.680Z,1.17
2023-04-02T08:22:43.926Z,1.10
2023-04-02T08:25:32.024Z,1.00
2023-04-02T08:28:21.135Z,1.30
2023-04-02T08:31:09.244Z,1.27
2023-04-02T08:33:57.463Z,1.00
2023-04-02T08:36:46.411Z,0.90
2023-04-02T08:39:35.738Z,1.20
2023-04-02T08:42:30.514Z,0.90
2023-04-02T08:45:25.399Z,1.13
2023-04-02T08:48:15.458Z,1.10
2023-04-02T08:51:05.969Z,1.07
2023-04-02T08:53:57.821Z,1.27
2023-04-02T08:56:53.350Z,0.97
2023-04-02T08:59:43.926Z,1.00
2023-04-02T09:02:39.153Z,1.00
2023-04-02T09:05:30.628Z,1.00
2023-04-02T09:08:21.052Z,1.00
2023-04-02T09:11:13.247Z,1.30
2023-04-02T09:14:06.955Z,1.10
2023-04-02T09:16:58.844Z,1.00
2023-04-02T09:19:54.193Z,1.03
2023-04-02T09:22:42.468Z,1.10
2023-04-02T09:25:33.261Z,1.30
2023-04-02T09:28:23.563Z,1.00
2023-04-02T09:31:20.009Z,1.60
2023-04-02T09:34:30.114Z,1.10
2023-04-02T09:37:21.313Z,1.17
2023-04-02T09:40:19.604Z,1.00
2023-04-02T09:43:13.715Z,1.00
2023-04-02T09:46:04.218Z,1.10
2023-04-02T09:48:58.046Z,1.10
2023-04-02T09:51:46.199Z,1.20
2023-04-02T09:54:34.224Z,0.90
2023-04-02T09:57:27.202Z,1.17
2023-04-02T10:00:31.255Z,1.60
2023-04-02T10:03:25.241Z,2.40
2023-04-02T10:06:16.434Z,1.13
2023-04-02T10:09:30.713Z,1.47
2023-04-02T10:12:18.702Z,1.00
2023-04-02T10:15:08.318Z,1.10
2023-04-02T10:18:02.422Z,1.10
2023-04-02T10:20:53.583Z,1.00
2023-04-02T10:23:43.002Z,0.90
2023-04-02T10:26:43.294Z,1.10
2023-04-02T10:30:15.660Z,0.80
2023-04-02T10:33:08.282Z,0.90
2023-04-02T10:36:02.993Z,0.90
2023-04-02T10:38:58.959Z,1.17
2023-04-02T10:41:53.691Z,1.00
2023-04-02T10:44:52.859Z,1.40
2023-04-02T10:47:47.513Z,1.00
2023-04-02T10:50:44.949Z,0.90
2023-04-02T10:53:42.533Z,1.00
2023-04-02T10:56:44.053Z,1.10
2023-04-02T10:59:42.560Z,0.80
2023-04-02T11:02:36.466Z,1.00
2023-04-02T11:05:32.197Z,1.20
2023-04-02T11:08:24.492Z,1.10
2023-04-02T11:11:15.929Z,1.00
2023-04-02T11:14:14.700Z,0.90
2023-04-02T11:17:03.695Z,1.10
2023-04-02T11:19:52.590Z,1.00
2023-04-02T11:22:41.477Z,0.90
2023-04-02T11:25:29.927Z,0.93
2023-04-02T11:28:29.229Z,0.87
2023-04-02T11:31:22.970Z,0.93
2023-04-02T11:34:15.106Z,1.27
2023-04-02T11:37:08.866Z,0.90
2023-04-02T11:39:59.156Z,1.37
2023-04-02T11:42:48.687Z,1.10
2023-04-02T11:45:58.153Z,0.80
2023-04-02T11:48:48.308Z,1.00
2023-04-02T11:51:56.605Z,1.17
2023-04-02T11:55:01.291Z,0.90
2023-04-02T11:57:58.845Z,1.03
2023-04-02T12:01:22.766Z,1.10
2023-04-02T12:04:38.535Z,0.90
2023-04-02T12:07:38.135Z,0.83
2023-04-02T12:10:34.306Z,0.83
2023-04-02T12:13:49.031Z,0.90
2023-04-02T12:16:37.542Z,0.90
2023-04-02T12:19:30.497Z,1.10
2023-04-02T12:22:23.056Z,0.80
2023-04-02T12:25:26.905Z,0.93
2023-04-02T12:28:19.628Z,0.80
2023-04-02T12:31:14.955Z,0.90
2023-04-02T12:34:03.417Z,0.90
2023-04-02T12:36:59.554Z,0.80
2023-04-02T12:39:54.608Z,0.80
2023-04-02T12:42:42.995Z,1.00
2023-04-02T12:45:34.328Z,1.00
2023-04-02T12:48:22.923Z,0.93
2023-04-02T12:51:11.667Z,0.80
2023-04-02T12:54:01.522Z,0.83
2023-04-02T12:56:50.415Z,0.90
2023-04-02T12:59:39.794Z,1.07
2023-04-02T13:02:30.301Z,1.00
2023-04-02T13:05:35.762Z,0.80
2023-04-02T13:08:27.211Z,0.90
2023-04-02T13:11:16.933Z,1.07
2023-04-02T13:14:07.246Z,1.00
2023-04-02T13:16:56.441Z,1.27
2023-04-02T13:19:45.122Z,1.37
2023-04-02T13:22:34.293Z,0.80
2023-04-02T13:25:29.005Z,1.00
2023-04-02T13:28:18.670Z,1.10
2023-04-02T13:31:06.840Z,0.80
2023-04-02T13:33:54.857Z,0.73
2023-04-02T13:36:42.881Z,1.00
2023-04-02T13:39:31.449Z,1.00
2023-04-02T13:42:19.905Z,0.90
2023-04-02T13:45:22.070Z,1.00
2023-04-02T13:48:14.997Z,1.10
2023-04-02T13:51:03.432Z,1.00
2023-04-02T13:53:54.746Z,0.93
2023-04-02T13:56:43.156Z,0.70
2023-04-02T13:59:31.545Z,0.90
2023-04-02T14:02:25.313Z,1.10
2023-04-02T14:05:24.605Z,0.93
2023-04-02T14:08:21.131Z,0.70
2023-04-02T14:11:24.856Z,0.80
2023-04-02T14:14:25.488Z,0.90
2023-04-02T14:17:25.753Z,0.80
2023-04-02T14:20:24.462Z,0.80
2023-04-02T14:23:25.718Z,0.77
2023-04-02T14:26:22.219Z,0.87
2023-04-02T14:29:17.372Z,0.80
2023-04-02T14:32:10.229Z,0.80
2023-04-02T14:35:06.300Z,0.93
2023-04-02T14:38:03.124Z,0.70
2023-04-02T14:40:56.660Z,0.80
2023-04-02T14:43:48.233Z,1.00
2023-04-02T14:46:38.643Z,0.70
2023-04-02T14:49:32.757Z,0.70
2023-04-02T14:52:24.532Z,0.90
2023-04-02T14:55:19.318Z,0.80
2023-04-02T14:58:15.613Z,1.00
2023-04-02T15:01:07.998Z,0.80
2023-04-02T15:04:02.257Z,1.00
2023-04-02T15:06:53.396Z,0.70
2023-04-02T15:09:48.381Z,0.87
2023-04-02T15:12:39.620Z,0.90
2023-04-02T15:15:39.943Z,0.87
2023-04-02T15:18:29.945Z,0.83
2023-04-02T15:21:34.299Z,0.83
2023-04-02T15:24:33.283Z,0.90
2023-04-02T15:27:37.114Z,0.83
2023-04-02T15:30:28.658Z,0.90
2023-04-02T15:33:39.369Z,0.90
2023-04-02T15:36:41.054Z,0.67
2023-04-02T15:39:59.924Z,0.73
2023-04-02T15:42:57.722Z,0.77
2023-04-02T15:46:09.972Z,0.67
2023-04-02T15:49:21.016Z,0.70
2023-04-02T15:52:13.265Z,0.90
2023-04-02T15:55:15.018Z,0.70
2023-04-02T15:58:21.788Z,0.87
2023-04-02T16:01:15.940Z,0.90
2023-04-02T16:04:43.105Z,1.23
2023-04-02T16:07:57.396Z,0.80
2023-04-02T16:10:46.197Z,0.90
2023-04-02T16:13:37.358Z,0.80
2023-04-02T16:16:31.469Z,0.90
2023-04-02T16:19:27.371Z,0.93
2023-04-02T16:22:21.690Z,1.27
2023-04-02T16:25:19.247Z,1.40
2023-04-02T16:28:18.913Z,1.27
2023-04-02T16:31:15.052Z,1.00
2023-04-02T16:34:10.644Z,0.90
2023-04-02T16:37:04.317Z,0.90
2023-04-02T16:39:58.128Z,1.10
2023-04-02T16:42:54.168Z,0.73
2023-04-02T16:45:49.618Z,1.00
2023-04-02T16:48:45.365Z,1.03
2023-04-02T16:51:43.184Z,1.10
2023-04-02T16:54:36.426Z,0.97
2023-04-02T16:57:32.655Z,0.90
2023-04-02T17:00:26.850Z,1.10
2023-04-02T17:03:29.933Z,0.90
2023-04-02T17:06:30.961Z,0.93
2023-04-02T17:09:22.031Z,1.00
2023-04-02T17:12:17.330Z,0.90
2023-04-02T17:15:24.905Z,1.20
2023-04-02T17:18:19.834Z,1.33
2023-04-02T17:21:11.295Z,1.00
2023-04-02T17:24:07.116Z,0.90
2023-04-02T17:27:00.699Z,0.90
2023-04-02T17:29:53.563Z,1.00
2023-04-02T17:32:42.670Z,0.80
2023-04-02T17:35:40.910Z,1.00
2023-04-02T17:38:35.051Z,1.20
2023-04-02T17:41:35.173Z,1.17
2023-04-02T17:44:42.232Z,0.80
2023-04-02T17:47:41.541Z,1.00
2023-04-02T17:50:38.004Z,1.20
2023-04-02T17:53:37.238Z,1.93
2023-04-02T17:56:40.044Z,2.63
2023-04-02T17:59:45.384Z,1.87
2023-04-02T18:02:45.534Z,1.40
2023-04-02T18:05:39.858Z,1.00
2023-04-02T18:08:36.658Z,1.43
2023-04-02T18:11:34.623Z,1.30
2023-04-02T18:14:35.046Z,1.70
2023-04-02T18:17:30.484Z,1.90
2023-04-02T18:20:28.097Z,1.40
2023-04-02T18:23:25.476Z,1.30
2023-04-02T18:26:19.534Z,1.00
2023-04-02T18:29:22.980Z,1.03
2023-04-02T18:32:33.677Z,1.43
2023-04-02T18:35:28.040Z,1.43
2023-04-02T18:38:28.757Z,1.33
2023-04-02T18:41:28.289Z,1.50
2023-04-02T18:44:31.255Z,1.60
2023-04-02T18:47:26.278Z,1.47
2023-04-02T18:50:18.839Z,1.80
2023-04-02T18:53:12.640Z,1.60
2023-04-02T18:56:05.335Z,1.40
2023-04-02T18:58:59.254Z,2.07
2023-04-02T19:01:52.050Z,1.53
2023-04-02T19:04:43.758Z,1.13
2023-04-02T19:07:36.735Z,1.50
2023-04-02T19:10:30.522Z,1.77
2023-04-02T19:13:20.557Z,1.30
2023-04-02T19:16:28.992Z,1.50
2023-04-02T19:19:21.550Z,1.10
2023-04-02T19:22:17.517Z,1.00
2023-04-02T19:25:21.798Z,0.97
2023-04-02T19:28:17.916Z,1.13
2023-04-02T19:31:15.492Z,1.20
2023-04-02T19:34:16.368Z,1.20
2023-04-02T19:37:12.553Z,1.50
2023-04-02T19:40:32.656Z,1.07
2023-04-02T19:43:21.205Z,1.13
2023-04-02T19:46:09.773Z,1.33
2023-04-02T19:49:04.367Z,1.50
2023-04-02T19:51:53.627Z,1.40
2023-04-02T19:54:43.200Z,1.20
2023-04-02T19:57:31.683Z,1.37
2023-04-02T20:00:21.225Z,1.00
2023-04-02T20:03:09.616Z,1.13
2023-04-02T20:05:59.597Z,1.60
2023-04-02T20:08:48.084Z,1.20
2023-04-02T20:11:38.980Z,1.27
2023-04-02T20:14:27.357Z,1.23
2023-04-02T20:17:15.414Z,1.43
2023-04-02T20:20:04.368Z,1.17
2023-04-02T20:22:52.847Z,0.90
2023-04-02T20:25:46.287Z,1.03
2023-04-02T20:28:36.189Z,1.10
2023-04-02T20:31:24.627Z,1.03
2023-04-02T20:34:13.225Z,1.00
2023-04-02T20:37:01.907Z,0.80
2023-04-02T20:39:49.939Z,1.10
2023-04-02T20:42:38.370Z,1.00
2023-04-02T20:45:29.237Z,1.00
2023-04-02T20:48:17.955Z,1.20
2023-04-02T20:51:08.190Z,1.13
2023-04-02T20:53:56.661Z,1.27
2023-04-02T20:56:45.568Z,1.10
2023-04-02T20:59:33.958Z,1.00
2023-04-02T21:02:23.410Z,0.90
2023-04-02T21:05:11.875Z,1.13
2023-04-02T21:08:00.368Z,1.10
2023-04-02T21:10:48.737Z,0.90
2023-04-02T21:13:38.044Z,2.10
2023-04-02T21:16:29.210Z,1.17
2023-04-02T21:19:18.523Z,0.93
2023-04-02T21:22:06.920Z,0.80
2023-04-02T21:24:55.371Z,0.80
2023-04-02T21:27:43.410Z,0.87
2023-04-02T21:30:33.111Z,1.00
2023-04-02T21:33:21.551Z,1.03
2023-04-02T21:36:13.528Z,1.07
2023-04-02T21:39:03.461Z,1.00
2023-04-02T21:41:53.327Z,0.73
2023-04-02T21:44:41.757Z,1.27
2023-04-02T21:47:30.363Z,1.50
2023-04-02T21:50:18.850Z,0.80
2023-04-02T21:53:08.180Z,1.10
2023-04-02T21:56:01.985Z,1.00
2023-04-02T21:58:50.747Z,1.00
2023-04-02T22:01:41.225Z,1.20
2023-04-02T22:04:30.703Z,0.80
2023-04-02T22:07:19.230Z,1.10
2023-04-02T22:10:09.223Z,0.80
2023-04-02T22:12:57.649Z,0.90
2023-04-02T22:15:46.032Z,1.10
2023-04-02T22:18:34.858Z,1.00
2023-04-02T22:21:23.378Z,1.03
2023-04-02T22:24:14.552Z,0.90
2023-04-02T22:27:03.944Z,1.00
2023-04-02T22:29:52.386Z,0.90
2023-04-02T22:32:41.128Z,0.90
2023-04-02T22:35:31.408Z,0.80
2023-04-02T22:38:20.002Z,0.90
2023-04-02T22:41:09.549Z,0.80
2023-04-02T22:44:00.340Z,1.07
2023-04-02T22:46:48.764Z,1.17
2023-04-02T22:49:37.149Z,0.93
2023-04-02T22:52:25.698Z,0.90
2023-04-02T22:55:15.100Z,0.90
2023-04-02T22:58:03.525Z,0.87
2023-04-02T23:00:52.828Z,0.93
2023-04-02T23:03:41.525Z,1.00
2023-04-02T23:06:30.367Z,1.10
2023-04-02T23:09:18.769Z,1.00
2023-04-02T23:12:07.326Z,0.97
2023-04-02T23:14:57.038Z,1.10
2023-04-02T23:17:47.054Z,1.07
2023-04-02T23:20:35.689Z,0.90
2023-04-02T23:23:24.381Z,0.90
2023-04-02T23:26:14.515Z,0.90
2023-04-02T23:29:02.970Z,1.17
2023-04-02T23:31:51.564Z,0.90
2023-04-02T23:34:41.044Z,1.00
2023-04-02T23:37:29.474Z,0.87
2023-04-02T23:40:17.831Z,1.30
2023-04-02T23:43:06.282Z,1.20
2023-04-02T23:45:54.689Z,1.07
2023-04-02T23:48:44.499Z,1.17
2023-04-02T23:51:34.149Z,1.30
2023-04-02T23:54:22.594Z,0.87
2023-04-02T23:57:11.264Z,1.20
2023-04-02T23:59:59.661Z,0.70
